Time;durP1;ratioP1;P1;durP2;ratioP2;P2;SDS_P1;SDS_P2;PMS_P1;PMS_P2;Temp;Humidity;BMP_temperature;BMP_pressure;BME280_temperature;BME280_humidity;BME280_pressure;Samples;Min_cycle;Max_cycle;Signal;HPM_P1;HPM_P2
2022/06/15 00:01:14;;;;;;;;;;;;;;;13.13;100.00;99339.72;4258228;33;19989;-73
2022/06/15 00:03:40;;;;;;;;;;;;;;;13.12;100.00;99332.69;4256076;33;19950;-74
2022/06/15 00:06:08;;;;;;;;;;;;;;;13.14;100.00;99334.03;4227858;33;19973;-73
2022/06/15 00:08:42;;;;;;;;;;;;;;;13.17;100.00;99324.63;4238780;33;20366;-75
2022/06/15 00:11:11;;;;;;;;;;;;;;;13.16;100.00;99333.78;4227539;33;19957;-73
2022/06/15 00:13:37;;;;;;;;;;;;;;;13.13;100.00;99331.59;4243732;33;19976;-73
2022/06/15 00:16:04;;;;;;;;;;;;;;;13.11;100.00;99325.66;4238931;33;20087;-74
2022/06/15 00:18:32;;;;;;;;;;;;;;;13.15;100.00;99327.56;4240472;33;19942;-75
2022/06/15 00:20:58;;;;;;;;;;;;;;;13.16;100.00;99325.69;4237684;33;19953;-76
2022/06/15 00:23:25;;;;;;;;;;;;;;;13.18;100.00;99328.94;4247644;33;19953;-74
2022/06/15 00:25:52;;;;;;;;;;;;;;;13.18;100.00;99331.63;4239872;33;19941;-74
2022/06/15 00:28:18;;;;;;;;;;;;;;;13.19;100.00;99327.88;4227316;33;19956;-73
2022/06/15 00:30:46;;;;;;;;;;;;;;;13.16;100.00;99331.09;4240497;33;19941;-74
2022/06/15 00:33:12;;;;;;;;;;;;;;;13.16;100.00;99331.09;4238750;33;19945;-76
2022/06/15 00:35:39;;;;;;;;;;;;;;;13.16;100.00;99333.78;4239450;33;19949;-74
2022/06/15 00:38:07;;;;;;;;;;;;;;;13.18;100.00;99331.63;4240344;33;20292;-73
2022/06/15 00:40:34;;;;;;;;;;;;;;;13.17;100.00;99330.81;4227888;33;20280;-73
2022/06/15 00:43:00;;;;;;;;;;;;;;;13.17;100.00;99324.63;4226886;33;19945;-74
2022/06/15 00:45:27;;;;;;;;;;;;;;;13.17;100.00;99336.22;4237255;33;19986;-77
2022/06/15 00:47:53;;;;;;;;;;;;;;;13.15;100.00;99329.47;4233396;33;19949;-74
2022/06/15 00:50:21;;;;;;;;;;;;;;;13.17;100.00;99330.03;4239961;33;19938;-74
2022/06/15 00:53:07;;;;;;;;;;;;;;;13.15;100.00;99332.19;4239540;33;20490;-74
2022/06/15 00:55:34;;;;;;;;;;;;;;;13.14;100.00;99335.94;4248757;33;19945;-74
2022/06/15 00:58:02;;;;;;;;;;;;;;;13.13;100.00;99331.59;4240831;33;19950;-74
2022/06/15 01:00:29;;;;;;;;;;;;;;;13.05;100.00;99330.19;4239715;33;19952;-74
2022/06/15 01:02:55;;;;;;;;;;;;;;;12.97;100.00;99330.66;4227226;33;19984;-74
2022/06/15 01:05:31;;;;;;;;;;;;;;;12.96;100.00;99327.16;4234028;33;19988;-74
2022/06/15 01:08:07;;;;;;;;;;;;;;;12.99;100.00;99329.34;4239147;33;19938;-74
2022/06/15 01:10:52;;;;;;;;;;;;;;;12.88;100.00;99327.63;4239951;33;19938;-74
2022/06/15 01:13:36;;;;;;;;;;;;;;;12.82;100.00;99325.97;4246433;33;20858;-74
2022/06/15 01:16:13;;;;;;;;;;;;;;;12.84;100.00;99327.34;4240066;33;19946;-74
2022/06/15 01:18:44;;;;;;;;;;;;;;;12.77;100.00;99325.91;4246742;33;19941;-74
2022/06/15 01:21:20;;;;;;;;;;;;;;;12.77;100.00;99328.63;4241176;33;19949;-74
2022/06/15 01:24:14;;;;;;;;;;;;;;;12.68;100.00;99333.66;4241512;33;20085;-74
2022/06/15 01:26:43;;;;;;;;;;;;;;;12.71;100.00;99327.75;4246398;33;20370;-74
2022/06/15 01:29:28;;;;;;;;;;;;;;;12.69;100.00;99325.31;4239380;33;20419;-74
2022/06/15 01:32:00;;;;;;;;;;;;;;;12.64;100.00;99327.97;4225379;33;19956;-76
2022/06/15 01:34:30;;;;;;;;;;;;;;;12.58;100.00;99328.97;4239257;33;20476;-74
2022/06/15 01:37:06;;;;;;;;;;;;;;;12.48;100.00;99324.28;4243919;33;20324;-74
2022/06/15 01:39:45;;;;;;;;;;;;;;;12.44;100.00;99322.34;4252746;33;19941;-75
2022/06/15 01:42:16;;;;;;;;;;;;;;;12.38;100.00;99331.47;4250650;33;20794;-74
2022/06/15 01:44:45;;;;;;;;;;;;;;;12.36;100.00;99320.91;4250532;33;20382;-73
2022/06/15 01:47:16;;;;;;;;;;;;;;;12.37;100.00;99321.75;4246078;33;19959;-74
2022/06/15 01:49:46;;;;;;;;;;;;;;;12.33;100.00;99327.66;4236614;33;19944;-74
2022/06/15 01:52:14;;;;;;;;;;;;;;;12.31;100.00;99327.09;4253858;33;20782;-74
2022/06/15 01:54:44;;;;;;;;;;;;;;;12.29;100.00;99329.22;4253715;33;20354;-74
2022/06/15 01:57:18;;;;;;;;;;;;;;;12.28;100.00;99329.47;4253080;33;19976;-75
2022/06/15 02:00:03;;;;;;;;;;;;;;;12.26;100.00;99318.94;4239593;33;19970;-74
2022/06/15 02:02:39;;;;;;;;;;;;;;;12.16;100.00;99326.94;4256228;33;20274;-74
2022/06/15 02:05:08;;;;;;;;;;;;;;;12.18;100.00;99324.78;4256649;33;19941;-74
2022/06/15 02:07:42;;;;;;;;;;;;;;;12.14;100.00;99329.06;4242981;33;20321;-74
2022/06/15 02:10:14;;;;;;;;;;;;;;;12.07;100.00;99320.34;4251814;33;20484;-73
2022/06/15 02:12:44;;;;;;;;;;;;;;;12.07;100.00;99323.03;4250595;33;19942;-74
2022/06/15 02:15:15;;;;;;;;;;;;;;;12.08;100.00;99319.28;4239232;33;19938;-76
2022/06/15 02:17:47;;;;;;;;;;;;;;;12.06;100.00;99329.50;4242389;33;20287;-74
2022/06/15 02:20:16;;;;;;;;;;;;;;;12.06;100.00;99326.81;4242719;33;19946;-74
2022/06/15 02:22:44;;;;;;;;;;;;;;;12.07;100.00;99323.03;4241992;33;19955;-74
2022/06/15 02:25:13;;;;;;;;;;;;;;;12.03;100.00;99327.31;4228375;33;19948;-75
2022/06/15 02:27:41;;;;;;;;;;;;;;;12.02;100.00;99331.09;4241588;33;19946;-73
2022/06/15 02:30:10;;;;;;;;;;;;;;;11.94;100.00;99327.75;4242261;33;19960;-74
2022/06/15 02:32:37;;;;;;;;;;;;;;;11.89;100.00;99327.66;4240842;33;19937;-73
2022/06/15 02:35:04;;;;;;;;;;;;;;;11.80;100.00;99326.47;4244874;33;19946;-74
2022/06/15 02:37:31;;;;;;;;;;;;;;;11.76;100.00;99333.44;4249510;33;19941;-74
2022/06/15 02:39:57;;;;;;;;;;;;;;;11.74;100.00;99336.38;4239945;33;19956;-74
2022/06/15 02:42:26;;;;;;;;;;;;;;;11.71;100.00;99342.28;4242597;33;19943;-74
2022/06/15 02:44:54;;;;;;;;;;;;;;;11.58;100.00;99332.66;4256354;33;19959;-73
2022/06/15 02:47:28;;;;;;;;;;;;;;;11.58;100.00;99337.22;4249759;33;19942;-73
2022/06/15 02:49:56;;;;;;;;;;;;;;;11.53;100.00;99340.66;4242112;33;19967;-73
2022/06/15 02:52:25;;;;;;;;;;;;;;;11.38;100.00;99348.56;4229010;33;20316;-73
2022/06/15 02:54:53;;;;;;;;;;;;;;;11.30;100.00;99340.88;4241956;33;19960;-74
2022/06/15 02:57:21;;;;;;;;;;;;;;;11.37;100.00;99346.91;4238532;33;19942;-75
2022/06/15 02:59:48;;;;;;;;;;;;;;;11.40;100.00;99346.41;4228965;33;20342;-73
2022/06/15 03:02:14;;;;;;;;;;;;;;;11.40;100.00;99347.22;4245434;33;19971;-75
2022/06/15 03:04:43;;;;;;;;;;;;;;;11.39;100.00;99351.00;4247211;33;19937;-73
2022/06/15 03:07:10;;;;;;;;;;;;;;;11.39;100.00;99339.38;4251070;33;19938;-74
2022/06/15 03:09:38;;;;;;;;;;;;;;;11.30;100.00;99351.66;4239787;33;19988;-75
2022/06/15 03:12:07;;;;;;;;;;;;;;;11.35;100.00;99349.03;4240956;33;20684;-73
2022/06/15 03:14:33;;;;;;;;;;;;;;;11.37;100.00;99352.31;4241360;33;19950;-73
2022/06/15 03:17:01;;;;;;;;;;;;;;;11.38;100.00;99360.13;4228900;33;19938;-72
2022/06/15 03:19:28;;;;;;;;;;;;;;;11.24;100.00;99365.03;4240516;33;19981;-75
2022/06/15 03:21:55;;;;;;;;;;;;;;;11.12;100.00;99367.03;4249304;33;19937;-74
2022/06/15 03:24:21;;;;;;;;;;;;;;;11.07;100.00;99375.00;4241960;33;20358;-74
2022/06/15 03:26:48;;;;;;;;;;;;;;;11.07;100.00;99367.75;4249507;33;19937;-73
2022/06/15 03:29:17;;;;;;;;;;;;;;;11.16;100.00;99356.56;4247269;33;20327;-73
2022/06/15 03:31:44;;;;;;;;;;;;;;;11.18;100.00;99366.03;4226724;33;19971;-75
2022/06/15 03:34:11;;;;;;;;;;;;;;;11.11;100.00;99376.16;4250277;33;20706;-73
2022/06/15 03:36:37;;;;;;;;;;;;;;;11.07;100.00;99369.63;4242626;33;20317;-74
2022/06/15 03:39:03;;;;;;;;;;;;;;;11.12;100.00;99367.03;4255451;33;19937;-74
2022/06/15 03:41:31;;;;;;;;;;;;;;;11.14;100.00;99364.91;4238247;33;20248;-74
2022/06/15 03:43:59;;;;;;;;;;;;;;;11.13;100.00;99365.94;4226610;33;20363;-74
2022/06/15 03:46:25;;;;;;;;;;;;;;;11.09;100.00;99364.81;4241023;33;19976;-74
2022/06/15 03:48:57;;;;;;;;;;;;;;;11.19;100.00;99370.38;4241211;33;19960;-73
2022/06/15 03:51:23;;;;;;;;;;;;;;;11.18;100.00;99368.72;4245893;33;19976;-74
2022/06/15 03:53:52;;;;;;;;;;;;;;;11.33;100.00;99370.03;4252711;33;20374;-74
2022/06/15 03:56:19;;;;;;;;;;;;;;;11.37;100.00;99358.50;4254962;33;19953;-74
2022/06/15 03:58:46;;;;;;;;;;;;;;;11.46;100.00;99361.59;4231327;33;20234;-74
2022/06/15 04:01:13;;;;;;;;;;;;;;;11.55;100.00;99357.44;4239555;33;19963;-74
2022/06/15 04:03:39;;;;;;;;;;;;;;;11.64;100.00;99366.72;4226830;33;19955;-75
2022/06/15 04:06:06;;;;;;;;;;;;;;;11.68;100.00;99368.91;4240375;33;19933;-75
2022/06/15 04:08:39;;;;;;;;;;;;;;;11.70;100.00;99364.09;4228109;33;19952;-75
2022/06/15 04:11:06;;;;;;;;;;;;;;;11.71;100.00;99363.03;4227678;33;19956;-75
2022/06/15 04:13:34;;;;;;;;;;;;;;;11.71;100.00;99363.84;4240541;33;19949;-74
2022/06/15 04:16:01;;;;;;;;;;;;;;;11.71;100.00;99373.81;4244492;33;19963;-73
2022/06/15 04:18:28;;;;;;;;;;;;;;;11.72;100.00;99370.06;4247966;33;20352;-75
2022/06/15 04:20:56;;;;;;;;;;;;;;;11.71;100.00;99379.22;4255008;33;19937;-74
2022/06/15 04:23:23;;;;;;;;;;;;;;;11.74;100.00;99384.09;4254891;33;20341;-74
2022/06/15 04:25:57;;;;;;;;;;;;;;;11.66;100.00;99371.03;4253110;33;19949;-76
2022/06/15 04:28:26;;;;;;;;;;;;;;;11.78;100.00;99379.84;4253166;33;19945;-75
2022/06/15 04:30:54;;;;;;;;;;;;;;;11.82;100.00;99381.81;4254818;33;19981;-75
2022/06/15 04:33:24;;;;;;;;;;;;;;;11.77;100.00;99389.00;4254197;33;19961;-72
2022/06/15 04:35:51;;;;;;;;;;;;;;;11.72;100.00;99380.84;4253728;33;19937;-75
2022/06/15 04:38:18;;;;;;;;;;;;;;;11.76;100.00;99390.91;4253988;33;19998;-73
2022/06/15 04:40:45;;;;;;;;;;;;;;;11.91;100.00;99379.47;4247652;33;20275;-73
2022/06/15 04:43:11;;;;;;;;;;;;;;;11.93;100.00;99381.97;4243462;33;20272;-73
2022/06/15 04:45:38;;;;;;;;;;;;;;;11.93;100.00;99393.56;4245335;33;20031;-73
2022/06/15 04:48:05;;;;;;;;;;;;;;;11.99;100.00;99397.97;4240510;33;19941;-74
2022/06/15 04:50:34;;;;;;;;;;;;;;;12.03;100.00;99382.13;4254794;33;20137;-73
2022/06/15 04:53:01;;;;;;;;;;;;;;;12.08;100.00;99389.47;4234263;33;19944;-74
2022/06/15 04:55:27;;;;;;;;;;;;;;;12.09;100.00;99380.28;4238998;33;19941;-74
2022/06/15 04:57:57;;;;;;;;;;;;;;;12.02;100.00;99395.84;4239663;33;20324;-76
2022/06/15 05:00:31;;;;;;;;;;;;;;;12.12;100.00;99390.56;4241014;33;19965;-73
2022/06/15 05:02:59;;;;;;;;;;;;;;;12.15;100.00;99385.47;4253189;33;19955;-74
2022/06/15 05:05:25;;;;;;;;;;;;;;;12.16;100.00;99386.31;4236628;33;19963;-73
2022/06/15 05:07:52;;;;;;;;;;;;;;;12.17;100.00;99398.72;4246143;33;20011;-75
2022/06/15 05:10:21;;;;;;;;;;;;;;;12.21;100.00;99399.87;4253008;33;19951;-74
2022/06/15 05:12:47;;;;;;;;;;;;;;;12.34;100.00;99388.69;4246991;33;19945;-73
2022/06/15 05:15:14;;;;;;;;;;;;;;;12.32;100.00;99390.81;4255849;33;19990;-74
2022/06/15 05:17:42;;;;;;;;;;;;;;;12.55;100.00;99394.31;4242530;33;20275;-74
2022/06/15 05:20:09;;;;;;;;;;;;;;;12.61;100.00;99396.00;4249413;33;19984;-76
2022/06/15 05:22:37;;;;;;;;;;;;;;;12.69;100.00;99398.25;4248241;33;19949;-73
2022/06/15 05:25:10;;;;;;;;;;;;;;;12.76;100.00;99405.34;4245548;33;19955;-73
2022/06/15 05:27:38;;;;;;;;;;;;;;;12.81;100.00;99410.78;4255120;33;20019;-73
2022/06/15 05:30:05;;;;;;;;;;;;;;;12.96;100.00;99408.25;4247665;33;19942;-76
2022/06/15 05:32:32;;;;;;;;;;;;;;;12.83;100.00;99381.63;4247589;33;19941;-74
2022/06/15 05:35:00;;;;;;;;;;;;;;;12.88;100.00;99403.31;4255153;33;20251;-70
2022/06/15 05:37:28;;;;;;;;;;;;;;;12.97;100.00;99407.19;4246360;33;19997;-70
2022/06/15 05:39:55;;;;;;;;;;;;;;;13.32;100.00;99413.13;4236775;33;19946;-69
2022/06/15 05:42:27;;;;;;;;;;;;;;;13.39;100.00;99411.88;4224148;33;19941;-70
2022/06/15 05:44:55;;;;;;;;;;;;;;;13.27;100.00;99411.19;4239628;33;20317;-69
2022/06/15 05:47:22;;;;;;;;;;;;;;;13.34;100.00;99401.03;4240217;33;19974;-69
2022/06/15 05:49:49;;;;;;;;;;;;;;;13.60;100.00;99412.03;4252850;33;19977;-69
2022/06/15 05:52:16;;;;;;;;;;;;;;;13.80;100.00;99414.87;4238071;33;19942;-71
2022/06/15 05:54:43;;;;;;;;;;;;;;;13.71;100.00;99410.22;4241499;33;20876;-69
2022/06/15 05:57:20;;;;;;;;;;;;;;;13.88;100.00;99415.44;4239164;33;20065;-70
2022/06/15 05:59:48;;;;;;;;;;;;;;;13.95;100.00;99403.31;4241522;33;20250;-70
2022/06/15 06:02:15;;;;;;;;;;;;;;;14.05;100.00;99407.94;4233809;33;19950;-71
2022/06/15 06:04:41;;;;;;;;;;;;;;;14.06;100.00;99417.72;4252843;33;19953;-70
2022/06/15 06:07:08;;;;;;;;;;;;;;;14.17;100.00;99419.38;4250114;33;19996;-69
2022/06/15 06:09:35;;;;;;;;;;;;;;;14.19;100.00;99421.03;4238478;33;20374;-70
2022/06/15 06:12:03;;;;;;;;;;;;;;;14.39;100.00;99410.28;4237925;33;19960;-70
2022/06/15 06:14:30;;;;;;;;;;;;;;;14.37;100.00;99414.31;4239971;33;19967;-70
2022/06/15 06:16:56;;;;;;;;;;;;;;;14.44;100.00;99413.00;4226026;33;19991;-70
2022/06/15 06:19:22;;;;;;;;;;;;;;;14.62;100.00;99414.44;4225388;33;20238;-70
2022/06/15 06:21:49;;;;;;;;;;;;;;;14.78;100.00;99422.63;4240995;33;19941;-70
2022/06/15 06:24:15;;;;;;;;;;;;;;;14.85;100.00;99420.44;4238383;33;20327;-70
2022/06/15 06:26:42;;;;;;;;;;;;;;;14.93;100.00;99413.69;4222806;33;20371;-70
2022/06/15 06:29:11;;;;;;;;;;;;;;;14.74;100.00;99405.25;4226540;33;19987;-69
2022/06/15 06:31:37;;;;;;;;;;;;;;;14.98;100.00;99411.81;4237808;33;19944;-69
2022/06/15 06:34:04;;;;;;;;;;;;;;;14.99;100.00;99415.31;4252161;33;19937;-70
2022/06/15 06:36:38;;;;;;;;;;;;;;;15.06;100.00;99410.44;4237723;33;20221;-70
2022/06/15 06:39:06;;;;;;;;;;;;;;;15.32;100.00;99399.63;4251807;33;20299;-70
2022/06/15 06:41:33;;;;;;;;;;;;;;;15.48;100.00;99414.78;4238054;33;19960;-69
2022/06/15 06:44:00;;;;;;;;;;;;;;;15.55;100.00;99404.47;4241535;33;19991;-70
2022/06/15 06:46:26;;;;;;;;;;;;;;;15.37;100.00;99410.47;4224547;33;19940;-72
2022/06/15 06:48:53;;;;;;;;;;;;;;;15.35;100.00;99409.91;4249665;33;19949;-70
2022/06/15 06:51:19;;;;;;;;;;;;;;;15.22;100.00;99405.84;4255281;33;20081;-69
2022/06/15 06:53:45;;;;;;;;;;;;;;;15.53;100.00;99416.69;4241047;33;20257;-69
2022/06/15 06:56:12;;;;;;;;;;;;;;;15.59;100.00;99419.13;4254684;33;19946;-69
2022/06/15 06:58:38;;;;;;;;;;;;;;;15.45;100.00;99407.19;4239177;33;20020;-72
2022/06/15 07:01:05;;;;;;;;;;;;;;;15.59;100.00;99421.84;4227155;33;19949;-70
2022/06/15 07:03:32;;;;;;;;;;;;;;;15.78;100.00;99413.16;4227667;33;20309;-71
2022/06/15 07:06:03;;;;;;;;;;;;;;;15.90;100.00;99410.94;4227135;33;20092;-70
2022/06/15 07:08:30;;;;;;;;;;;;;;;15.79;100.00;99414.78;4240222;33;19963;-71
2022/06/15 07:10:56;;;;;;;;;;;;;;;15.89;100.00;99420.19;4228058;33;19971;-70
2022/06/15 07:13:22;;;;;;;;;;;;;;;15.60;100.00;99418.06;4232855;33;20336;-70
2022/06/15 07:15:56;;;;;;;;;;;;;;;15.57;100.00;99415.88;4228816;33;19949;-70
2022/06/15 07:18:23;;;;;;;;;;;;;;;15.55;100.00;99409.88;4233226;33;19941;-70
2022/06/15 07:20:50;;;;;;;;;;;;;;;15.65;100.00;99421.81;4222160;33;19949;-72
2022/06/15 07:23:17;;;;;;;;;;;;;;;15.66;100.00;99415.31;4239554;33;19967;-70
2022/06/15 07:25:44;;;;;;;;;;;;;;;15.56;100.00;99411.53;4240002;33;19946;-70
2022/06/15 07:28:10;;;;;;;;;;;;;;;15.47;100.00;99407.72;4227046;33;19938;-70
2022/06/15 07:30:37;;;;;;;;;;;;;;;15.51;100.00;99406.13;4233341;33;19952;-70
2022/06/15 07:33:03;;;;;;;;;;;;;;;15.52;100.00;99418.56;4248043;33;19951;-71
2022/06/15 07:35:31;;;;;;;;;;;;;;;15.44;100.00;99419.13;4232059;33;19941;-70
2022/06/15 07:37:57;;;;;;;;;;;;;;;15.32;100.00;99405.03;4239396;33;19945;-70
2022/06/15 07:40:25;;;;;;;;;;;;;;;15.18;100.00;99416.41;4239655;33;20254;-70
2022/06/15 07:42:52;;;;;;;;;;;;;;;15.15;100.00;99406.09;4239313;33;19947;-70
2022/06/15 07:45:19;;;;;;;;;;;;;;;15.24;100.00;99409.91;4238085;33;20370;-74
2022/06/15 07:50:31;;;;;;;;;;;;;;;15.17;100.00;99409.38;4238014;33;19963;-70
2022/06/15 07:53:00;;;;;;;;;;;;;;;15.32;100.00;99405.03;4236808;33;19995;-72
2022/06/15 07:55:28;;;;;;;;;;;;;;;15.44;100.00;99408.28;4225379;33;20445;-71
2022/06/15 07:57:56;;;;;;;;;;;;;;;15.70;100.00;99400.94;4225249;33;20603;-71
2022/06/15 08:00:23;;;;;;;;;;;;;;;15.84;100.00;99406.59;4238011;33;19960;-70
2022/06/15 08:02:50;;;;;;;;;;;;;;;15.77;100.00;99406.09;4239703;33;19949;-69
2022/06/15 08:05:17;;;;;;;;;;;;;;;15.78;100.00;99407.75;4237641;33;20273;-70
2022/06/15 08:07:45;;;;;;;;;;;;;;;15.66;100.00;99407.19;4239905;33;20099;-70
2022/06/15 08:10:13;;;;;;;;;;;;;;;15.50;100.00;99411.81;4227395;33;19945;-70
2022/06/15 08:12:42;;;;;;;;;;;;;;;15.64;100.00;99406.66;4239480;33;19942;-69
2022/06/15 08:15:09;;;;;;;;;;;;;;;15.79;100.00;99398.47;4224573;33;19989;-70
2022/06/15 08:17:38;;;;;;;;;;;;;;;15.87;100.00;99416.13;4226562;33;20725;-70
2022/06/15 08:20:04;;;;;;;;;;;;;;;15.85;100.00;99408.25;4239414;33;19945;-70
2022/06/15 08:22:33;;;;;;;;;;;;;;;16.00;100.00;99420.16;4226694;33;19941;-71
2022/06/15 08:25:00;;;;;;;;;;;;;;;16.01;100.00;99421.78;4237182;33;19946;-70
2022/06/15 08:27:28;;;;;;;;;;;;;;;16.00;100.00;99403.88;4226719;33;20276;-69
2022/06/15 08:29:54;;;;;;;;;;;;;;;15.88;100.00;99418.56;4226475;33;19934;-70
2022/06/15 08:32:22;;;;;;;;;;;;;;;15.92;100.00;99407.97;4238887;33;20324;-70
2022/06/15 08:34:49;;;;;;;;;;;;;;;16.13;100.00;99403.25;4238094;33;19993;-71
2022/06/15 08:37:17;;;;;;;;;;;;;;;16.39;100.00;99408.63;4225810;33;19933;-69
2022/06/15 08:39:43;;;;;;;;;;;;;;;16.50;100.00;99418.34;4239763;33;19950;-69
2022/06/15 08:42:29;;;;;;;;;;;;;;;16.51;100.00;99406.37;4226242;33;19933;-70
2022/06/15 08:45:02;;;;;;;;;;;;;;;16.61;100.00;99417.19;4229314;33;19945;-71
2022/06/15 08:47:31;;;;;;;;;;;;;;;16.46;100.00;99430.84;4226345;33;19952;-70
2022/06/15 08:50:16;;;;;;;;;;;;;;;16.57;100.00;99410.69;4226811;33;20362;-69
2022/06/15 08:52:45;;;;;;;;;;;;;;;16.39;100.00;99405.91;4229218;33;19942;-71
2022/06/15 08:55:32;;;;;;;;;;;;;;;16.48;100.00;99406.94;4238024;33;20279;-70
2022/06/15 08:58:03;;;;;;;;;;;;;;;16.53;100.00;99420.50;4248747;33;19951;-72
2022/06/15 09:00:35;;;;;;;;;;;;;;;16.57;100.00;99407.97;4239964;33;19968;-69
2022/06/15 09:03:04;;;;;;;;;;;;;;;16.53;100.00;99417.78;4239737;33;19946;-69
2022/06/15 09:05:46;;;;;;;;;;;;;;;16.41;100.00;99392.84;4245047;33;19951;-69
2022/06/15 09:08:18;;;;;;;;;;;;;;;16.85;100.00;99408.38;4231162;33;19948;-71
2022/06/15 09:11:00;;;;;;;;;;;;;;;16.87;100.00;99412.44;4229156;33;19988;-70
2022/06/15 09:13:30;;;;;;;;;;;;;;;16.71;100.00;99410.88;4240598;33;19986;-70
2022/06/15 09:16:08;;;;;;;;;;;;;;;16.70;100.00;99420.13;4250939;33;20033;-70
2022/06/15 09:18:41;;;;;;;;;;;;;;;16.61;100.00;99409.06;4237536;33;19937;-70
2022/06/15 09:21:13;;;;;;;;;;;;;;;16.74;100.00;99423.94;4250501;33;19947;-70
2022/06/15 09:23:44;;;;;;;;;;;;;;;17.20;100.00;99415.50;4244421;33;19981;-69
2022/06/15 09:26:24;;;;;;;;;;;;;;;17.65;100.00;99415.38;4233040;33;19953;-69
2022/06/15 09:28:57;;;;;;;;;;;;;;;17.78;100.00;99420.13;4246648;33;19979;-69
2022/06/15 09:31:35;;;;;;;;;;;;;;;17.81;100.00;99413.31;4226976;33;19942;-70
2022/06/15 09:34:03;;;;;;;;;;;;;;;17.88;100.00;99413.00;4226141;33;20290;-69
2022/06/15 09:36:33;;;;;;;;;;;;;;;17.85;100.00;99418.97;4225485;33;20056;-69
2022/06/15 09:39:00;;;;;;;;;;;;;;;17.59;100.00;99417.31;4225172;33;19949;-71
2022/06/15 09:41:41;;;;;;;;;;;;;;;17.73;100.00;99414.75;4224380;33;19931;-70
2022/06/15 09:44:26;;;;;;;;;;;;;;;17.82;100.00;99420.34;4251143;33;20007;-69
2022/06/15 09:47:11;;;;;;;;;;;;;;;17.97;100.00;99427.59;4249435;33;20742;-70
2022/06/15 09:50:03;;;;;;;;;;;;;;;18.16;100.00;99414.03;4253146;33;20316;-70
2022/06/15 09:52:33;;;;;;;;;;;;;;;18.15;100.00;99429.56;4250599;33;19956;-70
2022/06/15 09:55:07;;;;;;;;;;;;;;;17.94;100.00;99428.19;4239991;33;20770;-70
2022/06/15 09:57:35;;;;;;;;;;;;;;;17.59;100.00;99428.22;4252065;33;20067;-70
2022/06/15 10:00:02;;;;;;;;;;;;;;;17.97;100.00;99422.16;4239654;33;19950;-69
2022/06/15 10:02:31;;;;;;;;;;;;;;;17.75;100.00;99415.25;4247754;33;20420;-71
2022/06/15 10:04:59;;;;;;;;;;;;;;;17.79;100.00;99421.75;4237904;33;19971;-70
2022/06/15 10:07:33;;;;;;;;;;;;;;;18.20;100.00;99430.63;4242966;33;19945;-69
2022/06/15 10:10:18;;;;;;;;;;;;;;;18.36;100.00;99421.16;4227488;33;19967;-69
2022/06/15 10:12:56;;;;;;;;;;;;;;;18.52;100.00;99428.03;4226723;33;19963;-70
2022/06/15 10:15:24;;;;;;;;;;;;;;;18.69;100.00;99418.53;4231115;33;20130;-70
2022/06/15 10:17:53;;;;;;;;;;;;;;;18.96;100.00;99419.84;4233057;33;20315;-69
2022/06/15 10:20:25;;;;;;;;;;;;;;;18.95;100.00;99416.28;4248025;33;19985;-69
2022/06/15 10:22:53;;;;;;;;;;;;;;;19.12;100.00;99423.16;4242730;33;19961;-70
2022/06/15 10:25:19;;;;;;;;;;;;;;;19.07;100.00;99415.84;4243898;33;20087;-69
2022/06/15 10:27:46;;;;;;;;;;;;;;;19.04;100.00;99421.91;4228589;33;19971;-69
2022/06/15 10:30:12;;;;;;;;;;;;;;;18.30;100.00;99414.13;4242845;33;20210;-70
2022/06/15 10:32:54;;;;;;;;;;;;;;;17.69;100.00;99424.56;4254671;33;19985;-69
2022/06/15 10:35:21;;;;;;;;;;;;;;;17.95;100.00;99413.47;4255401;33;19937;-69
2022/06/15 10:37:52;;;;;;;;;;;;;;;18.59;100.00;99408.59;4249366;33;19941;-69
2022/06/15 10:40:18;;;;;;;;;;;;;;;18.78;100.00;99403.16;4233573;33;20039;-70
2022/06/15 10:42:46;;;;;;;;;;;;;;;18.84;100.00;99412.91;4246575;33;20281;-70
2022/06/15 10:45:19;;;;;;;;;;;;;;;18.86;100.00;99409.88;4247657;33;19942;-69
2022/06/15 10:47:51;;;;;;;;;;;;;;;18.71;100.00;99408.16;4242350;33;19979;-70
2022/06/15 10:50:21;;;;;;;;;;;;;;;18.69;100.00;99407.63;4233924;33;19941;-70
2022/06/15 10:52:53;;;;;;;;;;;;;;;18.71;100.00;99402.69;4247344;33;19959;-70
2022/06/15 11:04:06;;;;;;;;;;;;;;;18.76;100.00;99383.50;4248482;33;20254;-70
2022/06/15 11:06:38;;;;;;;;;;;;;;;18.68;100.00;99392.38;4234359;33;19941;-70
2022/06/15 11:09:07;;;;;;;;;;;;;;;19.00;100.00;99393.56;4228231;33;19946;-71
2022/06/15 11:11:34;;;;;;;;;;;;;;;18.94;100.00;99378.38;4246893;33;20003;-70
2022/06/15 11:14:05;;;;;;;;;;;;;;;19.78;100.00;99396.63;4235035;33;19955;-71
2022/06/15 11:19:23;;;;;;;;;;;;;;;20.55;100.00;99389.63;4239891;33;20295;-70
2022/06/15 11:21:53;;;;;;;;;;;;;;;20.59;100.00;99390.63;4234855;33;19952;-71
2022/06/15 11:24:25;;;;;;;;;;;;;;;20.57;100.00;99395.59;4252159;33;19999;-70
2022/06/15 11:27:13;;;;;;;;;;;;;;;20.37;100.00;99404.22;4228478;33;20083;-70
2022/06/15 11:29:39;;;;;;;;;;;;;;;20.09;100.00;99396.06;4234837;33;19942;-71
2022/06/15 11:32:17;;;;;;;;;;;;;;;19.85;100.00;99391.59;4233624;33;19937;-71
2022/06/15 11:34:54;;;;;;;;;;;;;;;20.35;100.00;99392.81;4234832;33;19937;-71
2022/06/15 11:37:44;;;;;;;;;;;;;;;20.85;100.00;99384.59;4241706;33;19951;-70
2022/06/15 11:40:14;;;;;;;;;;;;;;;20.60;97.55;99384.03;4209232;33;19953;-70
2022/06/15 11:42:45;;;;;;;;;;;;;;;20.63;100.00;99383.44;4239386;33;19941;-71
2022/06/15 11:45:13;;;;;;;;;;;;;;;20.58;100.00;99388.19;4240230;33;19948;-70
2022/06/15 11:47:42;;;;;;;;;;;;;;;20.46;100.00;99386.00;4236931;33;20323;-71
2022/06/15 11:50:12;;;;;;;;;;;;;;;20.16;100.00;99390.97;4227264;33;20783;-70
2022/06/15 11:52:53;;;;;;;;;;;;;;;19.99;100.00;99396.25;4239554;33;20252;-70
2022/06/15 11:55:27;;;;;;;;;;;;;;;19.78;100.00;99399.37;4225324;33;19933;-70
2022/06/15 11:58:02;;;;;;;;;;;;;;;19.69;100.00;99398.41;4228214;33;19958;-72
2022/06/15 12:00:29;;;;;;;;;;;;;;;19.47;100.00;99391.72;4240010;33;20363;-70
2022/06/15 12:03:05;;;;;;;;;;;;;;;19.41;100.00;99390.16;4243019;33;19948;-70
2022/06/15 12:05:50;;;;;;;;;;;;;;;19.39;100.00;99384.22;4241358;33;19959;-70
2022/06/15 12:08:28;;;;;;;;;;;;;;;19.48;100.00;99387.88;4238055;33;19934;-70
2022/06/15 12:10:59;;;;;;;;;;;;;;;19.48;100.00;99382.41;4232177;33;19961;-71
2022/06/15 12:13:44;;;;;;;;;;;;;;;19.51;100.00;99378.25;4238781;33;19929;-69
2022/06/15 12:16:26;;;;;;;;;;;;;;;19.53;100.00;99385.06;4230892;33;19952;-69
2022/06/15 12:19:04;;;;;;;;;;;;;;;19.48;100.00;99376.94;4227475;33;20097;-70
2022/06/15 12:21:31;;;;;;;;;;;;;;;19.44;100.00;99375.91;4238934;33;19953;-69
2022/06/15 12:24:14;;;;;;;;;;;;;;;19.30;100.00;99369.63;4252038;33;20344;-69
2022/06/15 12:26:52;;;;;;;;;;;;;;;19.49;100.00;99373.09;4251641;33;19967;-68
2022/06/15 12:29:33;;;;;;;;;;;;;;;19.73;100.00;99372.12;4246549;33;19999;-68
2022/06/15 12:32:27;;;;;;;;;;;;;;;19.99;100.00;99368.91;4240611;33;19993;-69
2022/06/15 12:35:10;;;;;;;;;;;;;;;20.14;100.00;99374.09;4247162;33;20000;-70
2022/06/15 12:37:43;;;;;;;;;;;;;;;20.40;100.00;99368.87;4235035;33;20004;-70
2022/06/15 12:40:22;;;;;;;;;;;;;;;20.61;100.00;99368.44;4226717;33;20290;-69
2022/06/15 12:42:52;;;;;;;;;;;;;;;20.80;100.00;99366.38;4231001;33;19945;-69
2022/06/15 12:45:22;;;;;;;;;;;;;;;20.84;100.00;99374.78;4243262;33;19948;-70
2022/06/15 12:47:53;;;;;;;;;;;;;;;21.16;100.00;99378.41;4230987;33;20051;-70
2022/06/15 12:50:29;;;;;;;;;;;;;;;21.00;100.00;99376.03;4244704;33;19945;-70
2022/06/15 12:53:14;;;;;;;;;;;;;;;21.00;100.00;99369.75;4243506;33;19959;-70
2022/06/15 12:55:47;;;;;;;;;;;;;;;21.40;100.00;99373.38;4243657;33;19941;-70
2022/06/15 12:58:13;;;;;;;;;;;;;;;22.07;91.24;99373.56;4244676;33;20043;-70
2022/06/15 13:00:39;;;;;;;;;;;;;;;22.70;92.85;99357.69;4244034;33;19972;-72
2022/06/15 13:03:15;;;;;;;;;;;;;;;22.98;93.52;99369.16;4247469;33;19959;-71
2022/06/15 13:05:41;;;;;;;;;;;;;;;22.49;84.22;99369.31;4245491;33;19933;-71
2022/06/15 13:08:11;;;;;;;;;;;;;;;22.08;87.83;99373.25;4230950;33;20335;-70